createdAt,value
2022-07-26T00:00:16.857Z,865.63
2022-07-26T00:01:16.841Z,865.59
2022-07-26T00:02:18.561Z,865.59
2022-07-26T00:03:16.813Z,865.62
2022-07-26T00:04:16.817Z,865.65
2022-07-26T00:05:16.858Z,865.66
2022-07-26T00:06:18.955Z,865.63
2022-07-26T00:07:16.780Z,865.61
2022-07-26T00:08:16.771Z,865.54
2022-07-26T00:09:16.758Z,865.54
2022-07-26T00:10:16.738Z,865.55
2022-07-26T00:11:16.729Z,865.46
2022-07-26T00:12:16.758Z,865.49
2022-07-26T00:13:16.697Z,865.47
2022-07-26T00:14:16.721Z,865.50
2022-07-26T00:15:16.673Z,865.53
2022-07-26T00:16:16.734Z,865.52
2022-07-26T00:17:16.659Z,865.56
2022-07-26T00:18:16.652Z,865.57
2022-07-26T00:19:16.631Z,865.51
2022-07-26T00:20:16.641Z,865.49
2022-07-26T00:21:16.610Z,865.51
2022-07-26T00:22:17.003Z,865.49
2022-07-26T00:23:16.590Z,865.51
2022-07-26T00:24:16.603Z,865.52
2022-07-26T00:25:16.583Z,865.49
2022-07-26T00:26:16.562Z,865.46
2022-07-26T00:27:16.542Z,865.48
2022-07-26T00:28:16.561Z,865.48
2022-07-26T00:29:16.535Z,865.48
2022-07-26T00:30:16.525Z,865.49
2022-07-26T00:31:16.547Z,865.50
2022-07-26T00:32:16.514Z,865.51
2022-07-26T00:33:16.473Z,865.53
2022-07-26T00:34:16.475Z,865.44
2022-07-26T00:35:16.449Z,865.45
2022-07-26T00:36:16.466Z,865.49
2022-07-26T00:37:20.342Z,865.46
2022-07-26T00:38:16.427Z,865.50
2022-07-26T00:39:16.414Z,865.49
2022-07-26T00:40:16.414Z,865.44
2022-07-26T00:41:16.426Z,865.46
2022-07-26T00:42:16.706Z,865.42
2022-07-26T00:43:16.376Z,865.43
2022-07-26T00:44:16.386Z,865.49
2022-07-26T00:45:16.344Z,865.47
2022-07-26T00:46:16.405Z,865.41
2022-07-26T00:47:16.347Z,865.42
2022-07-26T00:48:16.326Z,865.43
2022-07-26T00:49:16.369Z,865.45
2022-07-26T00:50:16.301Z,865.46
2022-07-26T00:51:16.286Z,865.38
2022-07-26T00:52:16.285Z,865.36
2022-07-26T00:53:16.258Z,865.34
2022-07-26T00:54:16.266Z,865.36
2022-07-26T00:55:16.245Z,865.30
2022-07-26T00:56:16.225Z,865.26
2022-07-26T00:57:16.223Z,865.28
2022-07-26T00:58:16.208Z,865.30
2022-07-26T00:59:16.190Z,865.32
2022-07-26T01:00:16.194Z,865.32
2022-07-26T01:01:16.230Z,865.31
2022-07-26T01:02:16.483Z,865.26
2022-07-26T01:03:16.150Z,865.20
2022-07-26T01:04:16.138Z,865.17
2022-07-26T01:05:16.121Z,865.12
2022-07-26T01:06:16.131Z,865.14
2022-07-26T01:07:16.098Z,865.14
2022-07-26T01:08:16.110Z,865.09
2022-07-26T01:09:16.590Z,865.07
2022-07-26T01:10:16.070Z,865.06
2022-07-26T01:11:16.062Z,865.02
2022-07-26T01:12:16.310Z,865.02
2022-07-26T01:13:16.039Z,864.95
2022-07-26T01:14:16.030Z,864.93
2022-07-26T01:15:16.018Z,864.87
2022-07-26T01:16:16.070Z,864.90
2022-07-26T01:17:15.995Z,864.86
2022-07-26T01:18:16.033Z,864.81
2022-07-26T01:19:15.973Z,864.78
2022-07-26T01:20:15.979Z,864.77
2022-07-26T01:21:15.948Z,864.75
2022-07-26T01:22:15.963Z,864.74
2022-07-26T01:23:15.923Z,864.79
2022-07-26T01:24:15.943Z,864.77
2022-07-26T01:25:15.903Z,864.76
2022-07-26T01:26:15.903Z,864.76
2022-07-26T01:27:15.896Z,864.72
2022-07-26T01:28:20.237Z,864.72
2022-07-26T01:29:15.863Z,864.65
2022-07-26T01:30:15.895Z,864.64
2022-07-26T01:31:15.918Z,864.64
2022-07-26T01:32:15.831Z,864.60
2022-07-26T01:33:15.835Z,864.57
2022-07-26T01:34:15.809Z,864.57
2022-07-26T01:35:15.795Z,864.53
2022-07-26T01:36:15.808Z,864.48
2022-07-26T01:37:15.787Z,864.43
2022-07-26T01:38:15.775Z,864.47
2022-07-26T01:39:15.767Z,864.43
2022-07-26T01:40:15.736Z,864.47
2022-07-26T01:41:15.755Z,864.45
2022-07-26T01:42:16.086Z,864.45
2022-07-26T01:43:15.720Z,864.40
2022-07-26T01:44:15.710Z,864.42
2022-07-26T01:45:15.691Z,864.35
2022-07-26T01:46:15.724Z,864.35
2022-07-26T01:47:15.667Z,864.31
2022-07-26T01:48:15.649Z,864.30
2022-07-26T01:49:15.738Z,864.29
2022-07-26T01:50:15.648Z,864.30
2022-07-26T01:51:15.620Z,864.30
2022-07-26T01:52:15.601Z,864.27
2022-07-26T01:53:15.617Z,864.26
2022-07-26T01:54:15.664Z,864.28
2022-07-26T01:55:16.579Z,864.23
2022-07-26T01:56:15.588Z,864.20
2022-07-26T01:57:15.589Z,864.20
2022-07-26T01:58:15.547Z,864.16
2022-07-26T01:59:15.548Z,864.16
2022-07-26T02:00:15.514Z,864.16
2022-07-26T02:01:15.575Z,864.12
2022-07-26T02:02:15.584Z,864.10
2022-07-26T02:03:15.585Z,864.06
2022-07-26T02:04:15.492Z,864.05
2022-07-26T02:05:15.472Z,864.01
2022-07-26T02:06:15.459Z,863.98
2022-07-26T02:07:15.443Z,863.98
2022-07-26T02:08:15.432Z,863.91
2022-07-26T02:09:15.443Z,863.88
2022-07-26T02:10:15.411Z,863.89
2022-07-26T02:11:15.432Z,863.92
2022-07-26T02:12:15.400Z,863.91
2022-07-26T02:13:15.389Z,863.93
2022-07-26T02:14:26.048Z,863.94
2022-07-26T02:15:16.372Z,863.89
2022-07-26T02:16:15.454Z,863.82
2022-07-26T02:17:15.344Z,863.89
2022-07-26T02:18:15.317Z,863.85
2022-07-26T02:19:15.388Z,863.88
2022-07-26T02:20:15.328Z,863.86
2022-07-26T02:21:15.285Z,863.92
2022-07-26T02:22:15.284Z,863.91
2022-07-26T02:23:15.265Z,863.92
2022-07-26T02:24:15.269Z,863.97
2022-07-26T02:25:15.256Z,863.95
2022-07-26T02:26:15.236Z,863.88
2022-07-26T02:27:15.224Z,863.89
2022-07-26T02:28:15.194Z,863.93
2022-07-26T02:29:15.195Z,863.97
2022-07-26T02:30:15.194Z,863.97
2022-07-26T02:31:15.608Z,863.95
2022-07-26T02:32:15.158Z,863.98
2022-07-26T02:33:15.158Z,863.95
2022-07-26T02:34:15.135Z,863.99
2022-07-26T02:35:15.142Z,863.97
2022-07-26T02:36:15.120Z,863.96
2022-07-26T02:37:15.118Z,863.99
2022-07-26T02:38:15.085Z,863.95
2022-07-26T02:39:15.117Z,863.87
2022-07-26T02:40:19.050Z,863.81
2022-07-26T02:41:15.158Z,863.79
2022-07-26T02:42:15.048Z,863.83
2022-07-26T02:43:15.051Z,863.85
2022-07-26T02:44:15.030Z,863.86
2022-07-26T02:45:15.031Z,863.84
2022-07-26T02:46:15.063Z,863.86
2022-07-26T02:47:15.018Z,863.84
2022-07-26T02:48:14.987Z,863.83
2022-07-26T02:49:15.061Z,863.84
2022-07-26T02:50:14.967Z,863.85
2022-07-26T02:51:15.621Z,863.86
2022-07-26T02:52:14.942Z,863.90
2022-07-26T02:53:14.951Z,863.93
2022-07-26T02:54:14.940Z,863.85
2022-07-26T02:55:14.928Z,863.85
2022-07-26T02:56:14.898Z,863.81
2022-07-26T02:57:14.892Z,863.82
2022-07-26T02:58:14.881Z,863.78
2022-07-26T02:59:14.883Z,863.79
2022-07-26T03:00:15.072Z,863.74
2022-07-26T03:01:14.884Z,863.76
2022-07-26T03:02:14.884Z,863.78
2022-07-26T03:03:14.912Z,863.81
2022-07-26T03:04:14.810Z,863.81
2022-07-26T03:05:14.821Z,863.76
2022-07-26T03:06:14.794Z,863.81
2022-07-26T03:07:14.775Z,863.83
2022-07-26T03:08:14.773Z,863.86
2022-07-26T03:09:14.757Z,863.89
2022-07-26T03:10:14.748Z,863.91
2022-07-26T03:11:14.744Z,863.92
2022-07-26T03:12:14.724Z,863.90
2022-07-26T03:13:14.744Z,863.86
2022-07-26T03:14:14.691Z,863.91
2022-07-26T03:15:14.702Z,863.82
2022-07-26T03:16:17.846Z,863.79
2022-07-26T03:17:15.712Z,863.78
2022-07-26T03:18:14.655Z,863.83
2022-07-26T03:19:14.644Z,863.83
2022-07-26T03:20:14.635Z,863.81
2022-07-26T03:21:14.636Z,863.83
2022-07-26T03:22:14.612Z,863.82
2022-07-26T03:23:14.617Z,863.84
2022-07-26T03:24:14.595Z,863.81
2022-07-26T03:25:14.596Z,863.85
2022-07-26T03:26:14.567Z,863.81
2022-07-26T03:27:14.564Z,863.82
2022-07-26T03:28:19.138Z,863.81
2022-07-26T03:29:15.535Z,863.82
2022-07-26T03:30:14.515Z,863.73
2022-07-26T03:31:14.545Z,863.71
2022-07-26T03:32:14.499Z,863.71
2022-07-26T03:33:14.487Z,863.72
2022-07-26T03:34:14.676Z,863.71
2022-07-26T03:35:14.467Z,863.73
2022-07-26T03:36:15.450Z,863.72
2022-07-26T03:37:14.459Z,863.70
2022-07-26T03:38:14.427Z,863.68
2022-07-26T03:39:14.459Z,863.70
2022-07-26T03:40:14.401Z,863.71
2022-07-26T03:41:14.398Z,863.76
2022-07-26T03:42:14.377Z,863.77
2022-07-26T03:43:14.376Z,863.77
2022-07-26T03:44:14.368Z,863.79
2022-07-26T03:45:14.385Z,863.76
2022-07-26T03:46:14.413Z,863.83
2022-07-26T03:47:14.350Z,863.82
2022-07-26T03:48:14.309Z,863.84
2022-07-26T03:49:16.900Z,863.88
2022-07-26T03:50:14.309Z,863.87
2022-07-26T03:51:14.301Z,863.77
2022-07-26T03:52:14.282Z,863.80
2022-07-26T03:53:14.273Z,863.83
2022-07-26T03:54:14.301Z,863.82
2022-07-26T03:55:14.242Z,863.80
2022-07-26T03:56:14.243Z,863.84
2022-07-26T03:57:14.254Z,863.86
2022-07-26T03:58:14.211Z,863.81
2022-07-26T03:59:14.222Z,863.81
2022-07-26T04:00:14.175Z,863.80
2022-07-26T04:01:14.251Z,863.84
2022-07-26T04:02:14.224Z,863.84
2022-07-26T04:03:14.178Z,863.87
2022-07-26T04:04:14.133Z,863.87
2022-07-26T04:05:14.142Z,863.90
2022-07-26T04:06:14.145Z,863.94
2022-07-26T04:07:14.105Z,863.95
2022-07-26T04:08:14.094Z,863.97
2022-07-26T04:09:14.081Z,863.95
2022-07-26T04:10:14.066Z,863.93
2022-07-26T04:11:14.082Z,863.90
2022-07-26T04:12:14.055Z,863.87
2022-07-26T04:13:14.138Z,863.91
2022-07-26T04:14:14.166Z,863.91
2022-07-26T04:15:14.066Z,863.93
2022-07-26T04:16:14.034Z,863.92
2022-07-26T04:17:14.072Z,863.90
2022-07-26T04:18:13.980Z,863.93
2022-07-26T04:19:13.975Z,863.84
2022-07-26T04:20:14.001Z,863.85
2022-07-26T04:21:14.019Z,863.81
2022-07-26T04:22:13.969Z,863.81
2022-07-26T04:23:13.974Z,863.82
2022-07-26T04:24:13.927Z,863.80
2022-07-26T04:25:13.925Z,863.81
2022-07-26T04:26:13.906Z,863.84
2022-07-26T04:27:13.999Z,863.84
2022-07-26T04:28:13.949Z,863.86
2022-07-26T04:29:13.906Z,863.86
2022-07-26T04:30:15.373Z,863.90
2022-07-26T04:31:13.933Z,863.89
2022-07-26T04:32:13.826Z,863.88
2022-07-26T04:33:13.826Z,863.89
2022-07-26T04:34:13.886Z,863.86
2022-07-26T04:35:13.916Z,863.93
2022-07-26T04:36:13.847Z,863.91
2022-07-26T04:37:13.800Z,863.86
2022-07-26T04:38:13.798Z,863.90
2022-07-26T04:39:13.761Z,863.94
2022-07-26T04:40:13.736Z,863.89
2022-07-26T04:41:13.740Z,863.95
2022-07-26T04:42:13.739Z,863.92
2022-07-26T04:43:15.721Z,863.93
2022-07-26T04:44:13.710Z,863.98
2022-07-26T04:45:13.693Z,863.96
2022-07-26T04:46:13.732Z,864.02
2022-07-26T04:47:13.678Z,863.99
2022-07-26T04:48:13.664Z,863.97
2022-07-26T04:49:13.695Z,863.93
2022-07-26T04:50:13.636Z,863.92
2022-07-26T04:51:13.613Z,863.91
2022-07-26T04:52:13.878Z,863.93
2022-07-26T04:53:13.590Z,863.87
2022-07-26T04:54:13.782Z,863.89
2022-07-26T04:55:13.576Z,863.91
2022-07-26T04:56:13.583Z,863.96
2022-07-26T04:57:13.552Z,863.98
2022-07-26T04:58:13.703Z,863.95
2022-07-26T04:59:15.347Z,864.01
2022-07-26T05:00:22.256Z,864.02
2022-07-26T05:01:14.589Z,864.10
2022-07-26T05:02:13.736Z,864.01
2022-07-26T05:03:14.049Z,863.99
2022-07-26T05:04:13.555Z,863.99
2022-07-26T05:05:13.475Z,863.93
2022-07-26T05:06:13.463Z,863.97
2022-07-26T05:07:13.444Z,863.98
2022-07-26T05:08:13.427Z,863.98
2022-07-26T05:09:13.423Z,864.02
2022-07-26T05:10:13.408Z,863.96
2022-07-26T05:11:13.400Z,863.94
2022-07-26T05:12:13.383Z,863.93
2022-07-26T05:13:13.377Z,863.90
2022-07-26T05:14:13.375Z,863.79
2022-07-26T05:15:14.159Z,863.83
2022-07-26T05:16:13.342Z,863.86
2022-07-26T05:17:13.361Z,863.88
2022-07-26T05:18:13.646Z,863.85
2022-07-26T05:19:13.315Z,863.87
2022-07-26T05:20:13.295Z,863.96
2022-07-26T05:21:13.275Z,863.94
2022-07-26T05:22:13.282Z,863.91
2022-07-26T05:23:13.376Z,863.92
2022-07-26T05:24:13.267Z,863.96
2022-07-26T05:25:13.247Z,864.02
2022-07-26T05:26:13.247Z,864.03
2022-07-26T05:27:13.207Z,864.04
2022-07-26T05:28:13.227Z,864.12
2022-07-26T05:29:13.219Z,864.18
2022-07-26T05:30:13.189Z,864.16
2022-07-26T05:31:13.241Z,864.07
2022-07-26T05:32:13.167Z,864.09
2022-07-26T05:33:16.637Z,864.15
2022-07-26T05:34:13.139Z,864.14
2022-07-26T05:35:13.380Z,864.12
2022-07-26T05:36:13.128Z,864.10
2022-07-26T05:37:13.108Z,864.09
2022-07-26T05:38:13.109Z,864.08
2022-07-26T05:39:16.056Z,864.07
2022-07-26T05:40:13.099Z,864.11
2022-07-26T05:41:13.061Z,864.09
2022-07-26T05:42:13.060Z,864.00
2022-07-26T05:43:13.087Z,863.93
2022-07-26T05:44:13.040Z,863.96
2022-07-26T05:45:13.279Z,863.85
2022-07-26T05:46:13.096Z,863.89
2022-07-26T05:47:13.004Z,863.88
2022-07-26T05:48:12.983Z,863.95
2022-07-26T05:49:13.051Z,864.07
2022-07-26T05:50:12.964Z,864.14
2022-07-26T05:51:12.967Z,864.16
2022-07-26T05:52:12.953Z,864.25
2022-07-26T05:53:12.937Z,864.34
2022-07-26T05:54:12.927Z,864.42
2022-07-26T05:55:12.913Z,864.50
2022-07-26T05:56:12.904Z,864.55
2022-07-26T05:57:13.523Z,864.43
2022-07-26T05:58:12.872Z,864.29
2022-07-26T05:59:13.044Z,864.35
2022-07-26T06:00:12.852Z,864.31
2022-07-26T06:01:12.867Z,864.36
2022-07-26T06:02:12.855Z,864.34
2022-07-26T06:03:12.829Z,864.34
2022-07-26T06:04:13.810Z,864.37
2022-07-26T06:05:12.805Z,864.20
2022-07-26T06:06:12.805Z,864.16
2022-07-26T06:07:12.803Z,864.08
2022-07-26T06:08:12.764Z,864.11
2022-07-26T06:09:12.776Z,864.15
2022-07-26T06:10:12.736Z,864.18
2022-07-26T06:11:12.748Z,864.18
2022-07-26T06:12:12.717Z,864.17
2022-07-26T06:13:12.735Z,864.13
2022-07-26T06:14:13.070Z,864.11
2022-07-26T06:15:15.444Z,864.04
2022-07-26T06:16:12.676Z,864.07
2022-07-26T06:17:12.696Z,864.02
2022-07-26T06:18:12.676Z,863.88
2022-07-26T06:19:12.649Z,863.87
2022-07-26T06:20:12.639Z,863.78
2022-07-26T06:21:12.628Z,863.80
2022-07-26T06:22:12.597Z,863.88
2022-07-26T06:23:12.847Z,863.97
2022-07-26T06:24:12.790Z,864.04
2022-07-26T06:25:12.611Z,863.98
2022-07-26T06:26:12.560Z,863.94
2022-07-26T06:27:12.550Z,864.00
2022-07-26T06:28:12.547Z,863.93
2022-07-26T06:29:12.551Z,863.98
2022-07-26T06:30:12.519Z,863.98
2022-07-26T06:31:12.541Z,863.94
2022-07-26T06:32:12.547Z,863.89
2022-07-26T06:33:12.500Z,863.91
2022-07-26T06:34:12.592Z,863.91
2022-07-26T06:35:12.469Z,863.93
2022-07-26T06:36:12.448Z,863.92
2022-07-26T06:37:12.449Z,863.81
2022-07-26T06:38:12.609Z,863.78
2022-07-26T06:39:12.422Z,863.84
2022-07-26T06:40:12.420Z,863.92
2022-07-26T06:41:12.412Z,864.10
2022-07-26T06:42:12.388Z,864.22
2022-07-26T06:43:12.379Z,864.31
2022-07-26T06:44:12.484Z,864.44
2022-07-26T06:45:12.372Z,864.48
2022-07-26T06:46:12.394Z,864.60
2022-07-26T06:47:12.342Z,864.62
2022-07-26T06:48:12.321Z,864.59
2022-07-26T06:49:12.375Z,864.54
2022-07-26T06:50:12.309Z,864.64
2022-07-26T06:51:12.293Z,864.74
2022-07-26T06:52:12.281Z,864.70
2022-07-26T06:53:12.272Z,864.64
2022-07-26T06:54:12.301Z,864.65
2022-07-26T06:55:12.622Z,864.69
2022-07-26T06:56:12.305Z,864.64
2022-07-26T06:57:12.225Z,864.74
2022-07-26T06:58:12.207Z,864.59
2022-07-26T06:59:12.225Z,864.50
2022-07-26T07:00:12.208Z,864.40
2022-07-26T07:01:12.212Z,864.36
2022-07-26T07:02:12.203Z,864.38
2022-07-26T07:03:12.156Z,864.34
2022-07-26T07:04:12.485Z,864.32
2022-07-26T07:05:12.244Z,864.23
2022-07-26T07:06:12.128Z,864.21
2022-07-26T07:07:12.117Z,864.21
2022-07-26T07:08:12.097Z,864.21
2022-07-26T07:09:12.098Z,864.25
2022-07-26T07:10:12.602Z,864.29
2022-07-26T07:11:12.178Z,864.21
2022-07-26T07:12:12.048Z,864.31
2022-07-26T07:13:12.057Z,864.43
2022-07-26T07:14:12.230Z,864.47
2022-07-26T07:15:12.028Z,864.59
2022-07-26T07:16:12.024Z,864.62
2022-07-26T07:17:15.952Z,864.57
2022-07-26T07:18:12.976Z,864.52
2022-07-26T07:19:11.977Z,864.39
2022-07-26T07:20:11.956Z,864.33
2022-07-26T07:21:12.197Z,864.32
2022-07-26T07:22:12.597Z,864.42
2022-07-26T07:23:11.957Z,864.42
2022-07-26T07:24:12.255Z,864.41
2022-07-26T07:25:14.825Z,864.42
2022-07-26T07:26:11.916Z,864.49
2022-07-26T07:27:11.889Z,864.41
2022-07-26T07:28:11.892Z,864.49
2022-07-26T07:29:11.883Z,864.54
2022-07-26T07:30:11.863Z,864.60
2022-07-26T07:31:11.888Z,864.56
2022-07-26T07:32:18.553Z,864.60
2022-07-26T07:33:22.446Z,864.67
2022-07-26T07:34:12.962Z,864.67
2022-07-26T07:35:12.825Z,864.73
2022-07-26T07:36:11.789Z,864.69
2022-07-26T07:37:11.789Z,864.78
2022-07-26T07:38:11.771Z,864.90
2022-07-26T07:39:15.751Z,864.83
2022-07-26T07:40:12.741Z,864.94
2022-07-26T07:41:11.733Z,865.03
2022-07-26T07:42:11.722Z,865.13
2022-07-26T07:43:11.733Z,865.20
2022-07-26T07:44:11.995Z,865.26
2022-07-26T07:45:11.717Z,865.18
2022-07-26T07:46:11.682Z,865.06
2022-07-26T07:47:11.744Z,865.05
2022-07-26T07:48:11.654Z,865.05
2022-07-26T07:49:12.176Z,865.08
2022-07-26T07:50:11.656Z,865.17
2022-07-26T07:51:11.633Z,865.21
2022-07-26T07:52:11.862Z,865.24
2022-07-26T07:53:11.597Z,865.40
2022-07-26T07:54:11.585Z,865.57
2022-07-26T07:55:40.313Z,865.70
2022-07-26T07:56:12.562Z,865.68
2022-07-26T07:57:11.567Z,865.76
2022-07-26T07:58:11.541Z,865.64
2022-07-26T07:59:11.907Z,865.73
2022-07-26T08:00:11.536Z,865.83
2022-07-26T08:01:11.565Z,865.82
2022-07-26T08:02:11.498Z,865.60
2022-07-26T08:03:11.506Z,865.46
2022-07-26T08:04:11.503Z,865.48
2022-07-26T08:05:14.328Z,865.37
2022-07-26T08:06:11.458Z,865.31
2022-07-26T08:07:11.503Z,865.16
2022-07-26T08:08:11.432Z,865.06
2022-07-26T08:09:11.611Z,865.12
2022-07-26T08:10:11.407Z,865.17
2022-07-26T08:11:11.437Z,865.30
2022-07-26T08:12:11.509Z,865.35
2022-07-26T08:13:11.377Z,865.37
2022-07-26T08:14:11.369Z,865.56
2022-07-26T08:15:11.378Z,865.53
2022-07-26T08:16:11.411Z,865.52
2022-07-26T08:17:11.341Z,865.63
2022-07-26T08:18:11.317Z,865.61
2022-07-26T08:19:11.919Z,865.73
2022-07-26T08:20:11.291Z,865.82
2022-07-26T08:21:11.310Z,865.90
2022-07-26T08:22:11.288Z,865.89
2022-07-26T08:23:11.270Z,866.05
2022-07-26T08:24:11.269Z,865.97
2022-07-26T08:25:11.250Z,866.14
2022-07-26T08:26:11.243Z,866.20
2022-07-26T08:27:11.531Z,866.36
2022-07-26T08:28:30.595Z,866.41
2022-07-26T08:29:12.528Z,866.27
2022-07-26T08:30:11.190Z,866.22
2022-07-26T08:31:11.236Z,866.41
2022-07-26T08:32:11.163Z,866.49
2022-07-26T08:33:11.163Z,866.44
2022-07-26T08:34:11.150Z,866.53
2022-07-26T08:35:17.986Z,866.71
2022-07-26T08:36:12.113Z,866.74
2022-07-26T08:37:18.530Z,866.86
2022-07-26T08:38:12.094Z,866.84
2022-07-26T08:39:11.246Z,866.85
2022-07-26T08:40:11.074Z,866.75
2022-07-26T08:41:11.083Z,866.68
2022-07-26T08:42:11.061Z,866.62
2022-07-26T08:43:11.073Z,866.51
2022-07-26T08:44:11.044Z,866.53
2022-07-26T08:45:11.034Z,866.68
2022-07-26T08:46:11.693Z,866.85
2022-07-26T08:47:11.075Z,867.10
2022-07-26T08:48:18.881Z,867.43
2022-07-26T08:49:12.768Z,867.75
2022-07-26T08:50:10.978Z,867.70
2022-07-26T08:51:11.238Z,867.60
2022-07-26T08:52:10.954Z,867.56
2022-07-26T08:53:10.947Z,867.47
2022-07-26T08:54:10.946Z,867.55
2022-07-26T08:55:10.928Z,867.47
2022-07-26T08:56:10.894Z,867.06
2022-07-26T08:57:10.918Z,867.03
2022-07-26T08:58:10.879Z,867.02
2022-07-26T08:59:15.608Z,867.12
2022-07-26T09:00:11.848Z,867.27
2022-07-26T09:01:10.907Z,867.38
2022-07-26T09:02:10.859Z,867.17
2022-07-26T09:03:10.826Z,867.29
2022-07-26T09:04:13.668Z,867.49
2022-07-26T09:05:10.817Z,867.60
2022-07-26T09:06:10.790Z,867.82
2022-07-26T09:07:10.810Z,867.80
2022-07-26T09:08:10.778Z,867.73
2022-07-26T09:09:11.274Z,867.62
2022-07-26T09:10:10.740Z,867.67
2022-07-26T09:11:10.755Z,867.78
2022-07-26T09:12:10.741Z,867.64
2022-07-26T09:13:10.733Z,867.57
2022-07-26T09:14:10.712Z,867.56
2022-07-26T09:15:10.691Z,867.63
2022-07-26T09:16:10.774Z,867.77
2022-07-26T09:17:10.702Z,867.81
2022-07-26T09:18:10.659Z,867.74
2022-07-26T09:19:11.059Z,867.64
2022-07-26T09:20:10.730Z,867.67
2022-07-26T09:21:10.643Z,867.64
2022-07-26T09:22:10.861Z,867.55
2022-07-26T09:23:10.622Z,867.53
2022-07-26T09:24:10.603Z,867.55
2022-07-26T09:25:10.594Z,867.45
2022-07-26T09:26:10.570Z,867.35
2022-07-26T09:27:10.581Z,867.32
2022-07-26T09:28:10.541Z,867.20
2022-07-26T09:29:10.975Z,867.17
2022-07-26T09:30:10.514Z,866.83
2022-07-26T09:31:10.542Z,866.53
2022-07-26T09:32:10.502Z,866.27
2022-07-26T09:33:10.515Z,865.98
2022-07-26T09:34:10.857Z,865.73
2022-07-26T09:35:44.213Z,865.44
2022-07-26T09:36:11.463Z,865.06
2022-07-26T09:37:12.483Z,864.47
2022-07-26T09:38:10.496Z,864.21
2022-07-26T09:39:10.942Z,863.72
2022-07-26T09:40:10.417Z,863.47
2022-07-26T09:41:10.574Z,863.14
2022-07-26T09:42:27.407Z,862.81
2022-07-26T09:43:11.506Z,862.53
2022-07-26T09:44:10.844Z,862.34
2022-07-26T09:45:10.376Z,862.14
2022-07-26T09:46:10.439Z,862.03
2022-07-26T09:47:10.346Z,861.98
2022-07-26T09:48:10.608Z,861.91
2022-07-26T09:49:11.479Z,861.85
2022-07-26T09:50:11.682Z,861.83
2022-07-26T09:51:10.308Z,861.80
2022-07-26T09:52:10.276Z,861.83
2022-07-26T09:53:10.287Z,861.81
2022-07-26T09:54:10.656Z,861.75
2022-07-26T09:55:10.267Z,861.60
2022-07-26T09:56:10.236Z,861.63
2022-07-26T09:57:10.227Z,861.61
2022-07-26T09:58:10.211Z,861.67
2022-07-26T09:59:10.219Z,861.69
2022-07-26T10:00:10.203Z,861.70
2022-07-26T10:01:10.399Z,861.62
2022-07-26T10:02:10.264Z,861.55
2022-07-26T10:03:10.229Z,861.51
2022-07-26T10:04:10.634Z,861.48
2022-07-26T10:05:10.208Z,861.55
2022-07-26T10:06:10.142Z,861.54
2022-07-26T10:07:10.114Z,861.61
2022-07-26T10:08:10.098Z,861.67
2022-07-26T10:09:10.126Z,861.74
2022-07-26T10:10:10.093Z,861.78
2022-07-26T10:11:10.087Z,861.82
2022-07-26T10:12:10.071Z,861.86
2022-07-26T10:13:10.039Z,861.91
2022-07-26T10:14:10.528Z,861.96
2022-07-26T10:15:10.019Z,862.00
2022-07-26T10:16:10.071Z,862.09
2022-07-26T10:17:10.993Z,862.18
2022-07-26T10:18:09.992Z,862.20
2022-07-26T10:19:11.003Z,862.25
2022-07-26T10:20:19.280Z,862.33
2022-07-26T10:21:11.352Z,862.27
2022-07-26T10:22:09.963Z,862.33
2022-07-26T10:23:09.932Z,862.34
2022-07-26T10:24:10.257Z,862.42
2022-07-26T10:25:09.931Z,862.46
2022-07-26T10:26:09.973Z,862.56
2022-07-26T10:27:09.892Z,862.44
2022-07-26T10:28:11.732Z,862.35
2022-07-26T10:29:09.852Z,862.35
2022-07-26T10:30:09.925Z,862.40
2022-07-26T10:31:09.904Z,862.43
2022-07-26T10:32:09.843Z,862.49
2022-07-26T10:33:09.833Z,862.56
2022-07-26T10:34:10.095Z,862.61
2022-07-26T10:35:09.791Z,862.76
2022-07-26T10:36:09.803Z,862.91
2022-07-26T10:37:10.400Z,863.00
2022-07-26T10:38:09.775Z,862.95
2022-07-26T10:39:09.748Z,862.95
2022-07-26T10:40:09.751Z,863.04
2022-07-26T10:41:09.755Z,862.88
2022-07-26T10:42:09.734Z,862.86
2022-07-26T10:43:37.796Z,862.86
2022-07-26T10:44:11.199Z,862.80
2022-07-26T10:45:09.717Z,862.75
2022-07-26T10:46:09.702Z,862.78
2022-07-26T10:47:09.674Z,862.86
2022-07-26T10:48:09.673Z,862.89
2022-07-26T10:49:09.694Z,863.01
2022-07-26T10:50:09.635Z,863.17
2022-07-26T10:51:09.617Z,863.33
2022-07-26T10:52:09.615Z,863.49
2022-07-26T10:53:09.615Z,863.59
2022-07-26T10:54:10.014Z,863.60
2022-07-26T10:55:09.576Z,863.75
2022-07-26T10:56:09.579Z,863.84
2022-07-26T10:57:09.560Z,864.15
2022-07-26T10:58:09.559Z,864.45
2022-07-26T10:59:09.533Z,864.66
2022-07-26T11:00:09.573Z,864.78
2022-07-26T11:01:09.674Z,864.71
2022-07-26T11:02:09.577Z,864.63
2022-07-26T11:03:09.543Z,864.68
2022-07-26T11:04:10.750Z,864.87
2022-07-26T11:05:09.468Z,865.01
2022-07-26T11:06:09.463Z,865.05
2022-07-26T11:07:09.448Z,865.04
2022-07-26T11:08:09.439Z,865.00
2022-07-26T11:09:09.429Z,865.13
2022-07-26T11:10:09.487Z,865.18
2022-07-26T11:11:09.400Z,865.15
2022-07-26T11:12:09.412Z,865.11
2022-07-26T11:13:09.388Z,864.90
2022-07-26T11:14:09.918Z,864.67
2022-07-26T11:15:09.351Z,864.22
2022-07-26T11:16:09.512Z,863.84
2022-07-26T11:17:09.332Z,863.60
2022-07-26T11:18:09.360Z,863.44
2022-07-26T11:19:09.391Z,863.37
2022-07-26T11:20:09.305Z,863.14
2022-07-26T11:21:09.339Z,863.04
2022-07-26T11:22:09.312Z,862.97
2022-07-26T11:23:09.264Z,862.93
2022-07-26T11:24:09.638Z,862.91
2022-07-26T11:25:09.246Z,863.04
2022-07-26T11:26:09.248Z,863.10
2022-07-26T11:27:09.234Z,863.20
2022-07-26T11:28:09.237Z,863.25
2022-07-26T11:29:09.193Z,863.26
2022-07-26T11:30:09.295Z,863.32
2022-07-26T11:31:09.218Z,863.41
2022-07-26T11:32:14.619Z,863.43
2022-07-26T11:33:10.177Z,863.44
2022-07-26T11:34:11.414Z,863.58
2022-07-26T11:35:09.132Z,863.66
2022-07-26T11:36:09.148Z,863.67
2022-07-26T11:37:09.104Z,863.62
2022-07-26T11:38:12.146Z,863.52
2022-07-26T11:39:09.089Z,863.49
2022-07-26T11:40:09.084Z,863.54
2022-07-26T11:41:09.067Z,863.63
2022-07-26T11:42:09.071Z,863.54
2022-07-26T11:43:09.057Z,863.68
2022-07-26T11:44:09.048Z,863.78
2022-07-26T11:45:09.049Z,863.79
2022-07-26T11:46:09.098Z,863.94
2022-07-26T11:47:08.997Z,864.03
2022-07-26T11:48:09.018Z,864.15
2022-07-26T11:49:09.025Z,864.18
2022-07-26T11:50:16.428Z,864.28
2022-07-26T11:51:09.960Z,864.38
2022-07-26T11:52:08.958Z,864.39
2022-07-26T11:53:09.010Z,864.39
2022-07-26T11:54:09.182Z,864.33
2022-07-26T11:55:08.922Z,864.26
2022-07-26T11:56:08.900Z,864.29
2022-07-26T11:57:08.896Z,864.33
2022-07-26T11:58:08.905Z,864.29
2022-07-26T11:59:08.882Z,864.24
2022-07-26T12:00:08.896Z,864.23
2022-07-26T12:01:08.853Z,864.28
2022-07-26T12:02:08.870Z,864.27
2022-07-26T12:03:08.812Z,864.28
2022-07-26T12:04:09.388Z,864.20
2022-07-26T12:05:08.950Z,864.18
2022-07-26T12:06:08.805Z,864.25
2022-07-26T12:07:08.780Z,864.23
2022-07-26T12:08:08.783Z,864.22
2022-07-26T12:09:08.761Z,864.26
2022-07-26T12:10:08.993Z,864.34
2022-07-26T12:11:08.753Z,864.37
2022-07-26T12:12:08.752Z,864.36
2022-07-26T12:13:08.712Z,864.34
2022-07-26T12:14:09.985Z,864.38
2022-07-26T12:15:08.693Z,864.40
2022-07-26T12:16:09.008Z,864.46
2022-07-26T12:17:08.693Z,864.56
2022-07-26T12:18:08.666Z,864.59
2022-07-26T12:19:09.475Z,864.62
2022-07-26T12:20:09.273Z,864.57
2022-07-26T12:21:09.366Z,864.55
2022-07-26T12:22:08.641Z,864.56
2022-07-26T12:23:08.599Z,864.46
2022-07-26T12:24:09.350Z,864.39
2022-07-26T12:25:08.578Z,864.26
2022-07-26T12:26:10.096Z,864.17
2022-07-26T12:27:08.555Z,864.08
2022-07-26T12:28:08.565Z,864.05